Airport View

Enter AWOS ICAO identifier for current METAR.

ex. KFNL

KSTK 300335Z AUTO 27003KT 10SM CLR 03/01 A3014 RMK AO2

30 Oct 2020 03:42

Frequency: 118.525

Phone: 970-526-3009

Other Area AWOS: KAKO - KFMM - KSNY - KIBM

TAF KSNY 292320Z 3000/3024 22009KT P6SM SKC FM301600 25010KT P6SM SKC